createdAt,value
2023-03-03T00:02:09.786Z,4.21
2023-03-03T00:07:31.562Z,4.02
2023-03-03T00:12:53.399Z,3.96
2023-03-03T00:18:26.347Z,4.08
2023-03-03T00:23:48.079Z,4.05
2023-03-03T00:29:24.242Z,4.06
2023-03-03T00:34:45.999Z,4.00
2023-03-03T00:40:21.561Z,4.01
2023-03-03T00:45:46.006Z,3.90
2023-03-03T00:51:22.740Z,3.59
2023-03-03T00:56:44.636Z,3.57
2023-03-03T01:02:07.468Z,3.80
2023-03-03T01:07:29.179Z,3.84
2023-03-03T01:12:50.915Z,3.87
2023-03-03T01:18:13.051Z,3.72
2023-03-03T01:23:34.878Z,3.94
2023-03-03T01:28:56.640Z,3.84
2023-03-03T01:34:18.378Z,3.78
2023-03-03T01:39:40.134Z,3.82
2023-03-03T01:45:39.276Z,3.73
2023-03-03T01:51:03.779Z,3.47
2023-03-03T01:56:26.816Z,3.41
2023-03-03T02:01:49.371Z,3.45
2023-03-03T02:07:14.162Z,3.53
2023-03-03T02:12:40.444Z,3.41
2023-03-03T02:18:07.168Z,3.32
2023-03-03T02:23:38.192Z,3.28
2023-03-03T02:29:00.167Z,3.28
2023-03-03T02:34:21.941Z,3.23
2023-03-03T02:39:44.482Z,3.22
2023-03-03T02:45:06.956Z,2.98
2023-03-03T02:50:28.748Z,2.97
2023-03-03T02:55:50.469Z,3.07
2023-03-03T03:01:12.407Z,3.20
2023-03-03T03:06:34.306Z,3.20
2023-03-03T03:11:56.155Z,3.26
2023-03-03T03:17:17.948Z,3.23
2023-03-03T03:22:39.672Z,3.32
2023-03-03T03:28:02.098Z,3.33
2023-03-03T03:33:24.305Z,3.38
2023-03-03T03:38:46.062Z,3.56
2023-03-03T03:44:07.898Z,3.59
2023-03-03T03:49:29.650Z,3.59
2023-03-03T03:54:51.377Z,3.87
2023-03-03T04:00:13.468Z,3.98
2023-03-03T04:05:35.434Z,3.85
2023-03-03T04:10:57.144Z,3.77
2023-03-03T04:16:18.899Z,3.83
2023-03-03T04:21:40.604Z,4.07
2023-03-03T04:27:02.329Z,3.89
2023-03-03T04:32:24.102Z,4.19
2023-03-03T04:37:45.907Z,4.20
2023-03-03T04:43:07.973Z,3.96
2023-03-03T04:48:30.205Z,4.00
2023-03-03T04:53:51.976Z,4.19
2023-03-03T04:59:13.896Z,4.05
2023-03-03T05:04:36.730Z,4.04
2023-03-03T05:09:58.477Z,3.92
2023-03-03T05:15:20.205Z,3.98
2023-03-03T05:20:42.638Z,3.98
2023-03-03T05:26:04.720Z,4.15
2023-03-03T05:31:27.249Z,4.05
2023-03-03T05:36:49.088Z,3.98
2023-03-03T05:42:13.127Z,3.77
2023-03-03T05:47:34.862Z,3.80
2023-03-03T05:52:57.153Z,4.05
2023-03-03T05:58:18.880Z,4.11
2023-03-03T06:03:40.628Z,3.87
2023-03-03T06:09:02.746Z,3.91
2023-03-03T06:14:27.063Z,3.81
2023-03-03T06:19:49.062Z,4.00
2023-03-03T06:25:10.945Z,4.03
2023-03-03T06:30:33.410Z,3.78
2023-03-03T06:35:55.416Z,4.11
2023-03-03T06:41:17.318Z,4.08
2023-03-03T06:46:39.232Z,3.90
2023-03-03T06:52:09.587Z,3.96
2023-03-03T06:57:34.002Z,3.94
2023-03-03T07:03:23.458Z,4.07
2023-03-03T07:08:45.209Z,4.19
2023-03-03T07:14:16.274Z,4.19
2023-03-03T07:19:40.160Z,4.03
2023-03-03T07:25:18.163Z,4.23
2023-03-03T07:30:40.617Z,4.10
2023-03-03T07:36:04.142Z,4.10
2023-03-03T07:41:26.473Z,4.15
2023-03-03T07:46:50.453Z,4.30
2023-03-03T07:52:25.936Z,4.23
2023-03-03T07:57:50.408Z,4.34
2023-03-03T08:03:19.317Z,4.35
2023-03-03T08:08:43.714Z,4.56
2023-03-03T08:14:11.699Z,4.52
2023-03-03T08:19:34.255Z,4.60
2023-03-03T08:24:56.003Z,4.64
2023-03-03T08:30:17.901Z,4.91
2023-03-03T08:35:39.978Z,4.72
2023-03-03T08:41:01.971Z,4.46
2023-03-03T08:46:23.797Z,4.37
2023-03-03T08:51:45.627Z,4.20
2023-03-03T08:57:08.004Z,4.32
2023-03-03T09:02:29.701Z,4.28
2023-03-03T09:07:51.931Z,4.79
2023-03-03T09:13:16.984Z,4.75
2023-03-03T09:18:39.577Z,5.00
2023-03-03T09:24:01.679Z,4.99
2023-03-03T09:29:37.296Z,5.18
2023-03-03T09:35:00.430Z,5.43
2023-03-03T09:41:02.329Z,5.54
2023-03-03T09:46:33.807Z,5.58
2023-03-03T09:52:23.702Z,5.60
2023-03-03T09:58:10.878Z,5.79
2023-03-03T10:04:02.724Z,5.81
2023-03-03T10:09:54.979Z,5.96
2023-03-03T10:15:26.342Z,5.98
2023-03-03T10:20:59.577Z,6.42
2023-03-03T10:26:44.342Z,6.22
2023-03-03T10:32:31.047Z,6.22
2023-03-03T10:38:02.434Z,6.43
2023-03-03T10:43:44.026Z,6.55
2023-03-03T10:49:17.806Z,6.66
2023-03-03T10:54:51.520Z,6.70
2023-03-03T11:00:33.455Z,6.65
2023-03-03T11:06:00.033Z,6.84
2023-03-03T11:11:41.772Z,6.88
2023-03-03T11:17:12.204Z,7.05
2023-03-03T11:22:44.542Z,7.10
2023-03-03T11:28:08.940Z,7.23
2023-03-03T11:33:43.262Z,7.30
2023-03-03T11:39:16.331Z,7.43
2023-03-03T11:44:44.488Z,7.37
2023-03-03T11:50:15.175Z,7.35
2023-03-03T11:55:39.513Z,7.48
2023-03-03T12:01:23.030Z,7.55
2023-03-03T12:07:18.214Z,7.76
2023-03-03T12:12:48.232Z,7.92
2023-03-03T12:18:34.768Z,8.07
2023-03-03T12:23:59.597Z,8.37
2023-03-03T12:29:41.188Z,8.55
2023-03-03T12:35:32.206Z,8.64
2023-03-03T12:41:13.949Z,8.79
2023-03-03T12:46:52.060Z,8.93
2023-03-03T12:52:33.401Z,9.02
2023-03-03T12:58:04.379Z,9.20
2023-03-03T13:03:55.062Z,9.14
2023-03-03T13:09:22.819Z,9.15
2023-03-03T13:14:56.462Z,9.14
2023-03-03T13:20:51.085Z,9.14
2023-03-03T13:26:25.730Z,9.19
2023-03-03T13:31:52.450Z,9.21
2023-03-03T13:37:55.437Z,9.24
2023-03-03T13:43:28.220Z,9.46
2023-03-03T13:49:07.237Z,9.47
2023-03-03T13:54:47.316Z,9.36
2023-03-03T14:00:36.377Z,9.41
2023-03-03T14:06:11.923Z,9.33
2023-03-03T14:12:07.995Z,9.22
2023-03-03T14:17:43.827Z,9.40
2023-03-03T14:23:32.431Z,9.40
2023-03-03T14:29:17.005Z,9.57
2023-03-03T14:34:41.280Z,9.56
2023-03-03T14:40:17.001Z,9.53
2023-03-03T14:45:41.209Z,9.54
2023-03-03T14:51:27.238Z,9.63
2023-03-03T14:57:31.260Z,9.57
2023-03-03T15:02:53.021Z,9.63
2023-03-03T15:08:15.259Z,9.68
2023-03-03T15:13:39.102Z,9.65
2023-03-03T15:19:37.868Z,9.55
2023-03-03T15:25:27.613Z,9.75
2023-03-03T15:31:20.118Z,9.55
2023-03-03T15:36:52.991Z,9.47
2023-03-03T15:42:17.902Z,9.40
2023-03-03T15:48:17.150Z,9.48
2023-03-03T15:53:58.917Z,9.58
2023-03-03T15:59:45.011Z,9.62
2023-03-03T16:05:23.962Z,9.63
2023-03-03T16:11:09.923Z,9.45
2023-03-03T16:17:07.832Z,9.49
2023-03-03T16:22:49.699Z,9.46
2023-03-03T16:28:22.872Z,9.44
2023-03-03T16:34:01.723Z,9.17
2023-03-03T16:40:01.799Z,9.25
2023-03-03T16:45:27.807Z,9.12
2023-03-03T16:51:14.387Z,8.87
2023-03-03T16:56:43.645Z,8.88
2023-03-03T17:02:27.840Z,8.83
2023-03-03T17:08:01.935Z,8.93
2023-03-03T17:13:49.703Z,8.70
2023-03-03T17:19:39.808Z,8.75
2023-03-03T17:25:04.410Z,8.57
2023-03-03T17:30:59.769Z,8.50
2023-03-03T17:36:39.452Z,8.36
2023-03-03T17:42:32.114Z,8.40
2023-03-03T17:47:54.169Z,8.25
2023-03-03T17:53:43.546Z,8.11
2023-03-03T17:59:30.999Z,8.05
2023-03-03T18:05:26.665Z,8.02
2023-03-03T18:11:15.961Z,7.98
2023-03-03T18:17:09.830Z,7.86
2023-03-03T18:22:46.919Z,7.79
2023-03-03T18:28:08.735Z,7.81
2023-03-03T18:33:56.387Z,7.73
2023-03-03T18:39:36.408Z,7.63
2023-03-03T18:45:30.508Z,7.43
2023-03-03T18:50:52.949Z,7.41
2023-03-03T18:56:52.155Z,7.18
2023-03-03T19:02:39.000Z,7.35
2023-03-03T19:08:21.765Z,7.30
2023-03-03T19:13:45.718Z,7.07
2023-03-03T19:19:15.928Z,7.15
2023-03-03T19:24:40.828Z,6.93
2023-03-03T19:30:34.415Z,6.93
2023-03-03T19:36:06.595Z,6.81
2023-03-03T19:41:34.348Z,6.74
2023-03-03T19:47:02.684Z,6.77
2023-03-03T19:52:42.174Z,6.77
2023-03-03T19:58:11.444Z,6.69
2023-03-03T20:03:41.944Z,6.77
2023-03-03T20:09:16.902Z,6.80
2023-03-03T20:15:08.843Z,6.84
2023-03-03T20:20:48.945Z,6.64
2023-03-03T20:26:32.589Z,6.67
2023-03-03T20:32:07.263Z,6.61
2023-03-03T20:38:03.576Z,6.43
2023-03-03T20:43:49.011Z,6.42
2023-03-03T20:49:23.892Z,6.21
2023-03-03T20:55:19.367Z,6.01
2023-03-03T21:01:06.387Z,6.08
2023-03-03T21:06:38.858Z,5.97
2023-03-03T21:12:09.643Z,5.86
2023-03-03T21:17:31.910Z,5.74
2023-03-03T21:22:54.782Z,5.66
2023-03-03T21:28:24.700Z,5.55
2023-03-03T21:33:48.037Z,5.46
2023-03-03T21:39:24.801Z,5.33
2023-03-03T21:44:49.662Z,5.26
2023-03-03T21:50:11.684Z,5.31
2023-03-03T21:55:33.507Z,5.44
2023-03-03T22:00:56.370Z,5.34
2023-03-03T22:06:18.228Z,5.30
2023-03-03T22:11:39.970Z,5.29
2023-03-03T22:17:02.274Z,5.20
2023-03-03T22:22:24.427Z,5.22
2023-03-03T22:27:46.143Z,5.20
2023-03-03T22:33:08.065Z,5.16
2023-03-03T22:38:29.904Z,5.09
2023-03-03T22:43:51.809Z,5.10
2023-03-03T22:49:13.593Z,5.01
2023-03-03T22:54:35.344Z,4.92
2023-03-03T22:59:57.060Z,4.84
2023-03-03T23:05:18.936Z,4.82
2023-03-03T23:10:41.224Z,5.00
2023-03-03T23:16:03.120Z,4.76
2023-03-03T23:21:24.941Z,4.72
2023-03-03T23:26:46.703Z,4.74
2023-03-03T23:32:08.506Z,4.70
2023-03-03T23:37:30.334Z,4.79
2023-03-03T23:42:52.102Z,4.79
2023-03-03T23:48:13.942Z,4.80
2023-03-03T23:53:35.645Z,4.75
2023-03-03T23:58:57.411Z,4.79
